createdAt,value
2022-11-21T00:01:18.963Z,-1.30
2022-11-21T00:03:47.421Z,-1.40
2022-11-21T00:06:16.244Z,-1.40
2022-11-21T00:08:46.548Z,-1.50
2022-11-21T00:11:16.317Z,-1.50
2022-11-21T00:13:45.373Z,-1.50
2022-11-21T00:16:15.849Z,-1.60
2022-11-21T00:18:45.078Z,-1.70
2022-11-21T00:21:15.852Z,-1.70
2022-11-21T00:23:46.126Z,-1.80
2022-11-21T00:26:16.127Z,-1.80
2022-11-21T00:28:44.624Z,-1.80
2022-11-21T00:31:20.918Z,-1.80
2022-11-21T00:33:49.561Z,-1.90
2022-11-21T00:36:18.129Z,-1.90
2022-11-21T00:38:47.909Z,-1.90
2022-11-21T00:41:16.373Z,-2.00
2022-11-21T00:43:44.861Z,-2.00
2022-11-21T00:46:13.398Z,-2.00
2022-11-21T00:48:41.956Z,-2.00
2022-11-21T00:51:10.401Z,-2.00
2022-11-21T00:53:38.888Z,-1.90
2022-11-21T00:56:08.938Z,-1.90
2022-11-21T00:58:37.340Z,-1.80
2022-11-21T01:01:07.554Z,-1.80
2022-11-21T01:03:36.360Z,-1.70
2022-11-21T01:06:05.658Z,-1.70
2022-11-21T01:08:36.679Z,-1.70
2022-11-21T01:11:06.598Z,-1.80
2022-11-21T01:13:37.017Z,-1.80
2022-11-21T01:16:06.409Z,-1.90
2022-11-21T01:18:35.695Z,-1.90
2022-11-21T01:21:05.846Z,-1.90
2022-11-21T01:23:35.567Z,-1.90
2022-11-21T01:26:04.317Z,-1.90
2022-11-21T01:28:33.459Z,-2.00
2022-11-21T01:31:07.811Z,-2.00
2022-11-21T01:33:37.181Z,-2.10
2022-11-21T01:36:10.956Z,-2.10
2022-11-21T01:38:39.961Z,-2.20
2022-11-21T01:41:09.162Z,-2.20
2022-11-21T01:43:46.544Z,-2.30
2022-11-21T01:46:16.923Z,-2.20
2022-11-21T01:48:52.378Z,-2.20
2022-11-21T01:51:26.758Z,-2.20
2022-11-21T01:54:00.880Z,-2.10
2022-11-21T01:56:32.511Z,-2.00
2022-11-21T01:59:04.998Z,-1.90
2022-11-21T02:01:36.248Z,-1.90
2022-11-21T02:04:06.102Z,-1.90
2022-11-21T02:06:37.383Z,-1.80
2022-11-21T02:09:07.118Z,-1.80
2022-11-21T02:11:40.034Z,-1.80
2022-11-21T02:14:10.777Z,-1.90
2022-11-21T02:16:40.028Z,-1.80
2022-11-21T02:19:11.845Z,-1.90
2022-11-21T02:21:49.359Z,-2.00
2022-11-21T02:24:26.433Z,-2.00
2022-11-21T02:26:56.694Z,-2.00
2022-11-21T02:29:25.169Z,-2.10
2022-11-21T02:31:53.842Z,-2.10
2022-11-21T02:34:22.330Z,-2.00
2022-11-21T02:36:50.837Z,-2.00
2022-11-21T02:39:23.364Z,-2.00
2022-11-21T02:42:00.322Z,-2.10
2022-11-21T02:44:35.363Z,-2.10
2022-11-21T02:47:03.925Z,-2.10
2022-11-21T02:49:40.801Z,-2.10
2022-11-21T02:52:09.332Z,-2.10
2022-11-21T02:54:37.772Z,-2.00
2022-11-21T02:57:07.683Z,-1.90
2022-11-21T02:59:36.134Z,-1.90
2022-11-21T03:02:04.561Z,-1.80
2022-11-21T03:04:33.031Z,-1.80
2022-11-21T03:07:01.531Z,-1.70
2022-11-21T03:09:30.002Z,-1.70
2022-11-21T03:11:58.472Z,-1.70
2022-11-21T03:14:28.512Z,-1.70
2022-11-21T03:16:57.077Z,-1.80
2022-11-21T03:19:25.571Z,-1.80
2022-11-21T03:21:54.255Z,-1.70
2022-11-21T03:24:22.998Z,-1.70
2022-11-21T03:26:51.460Z,-1.60
2022-11-21T03:29:20.149Z,-1.60
2022-11-21T03:31:49.993Z,-1.70
2022-11-21T03:34:18.490Z,-1.80
2022-11-21T03:36:46.928Z,-1.80
2022-11-21T03:39:15.406Z,-1.80
2022-11-21T03:41:43.865Z,-1.90
2022-11-21T03:44:13.411Z,-2.00
2022-11-21T03:46:43.663Z,-2.00
2022-11-21T03:49:15.912Z,-2.00
2022-11-21T03:51:45.006Z,-2.00
2022-11-21T03:54:13.525Z,-2.00
2022-11-21T03:56:42.029Z,-1.90
2022-11-21T03:59:10.505Z,-1.90
2022-11-21T04:01:39.167Z,-1.80
2022-11-21T04:04:07.715Z,-1.80
2022-11-21T04:06:37.505Z,-1.80
2022-11-21T04:09:06.070Z,-1.90
2022-11-21T04:11:34.514Z,-1.90
2022-11-21T04:14:03.066Z,-1.90
2022-11-21T04:16:31.488Z,-1.90
2022-11-21T04:18:59.999Z,-1.90
2022-11-21T04:21:28.473Z,-1.90
2022-11-21T04:23:58.307Z,-1.80
2022-11-21T04:26:26.799Z,-1.60
2022-11-21T04:28:55.319Z,-1.80
2022-11-21T04:31:23.757Z,-1.70
2022-11-21T04:33:52.311Z,-1.70
2022-11-21T04:36:20.774Z,-1.70
2022-11-21T04:38:49.242Z,-1.70
2022-11-21T04:41:19.024Z,-1.70
2022-11-21T04:43:47.533Z,-1.70
2022-11-21T04:46:15.958Z,-1.70
2022-11-21T04:48:44.445Z,-1.70
2022-11-21T04:51:13.041Z,-1.60
2022-11-21T04:53:43.159Z,-1.60
2022-11-21T04:56:14.713Z,-1.60
2022-11-21T04:58:45.020Z,-1.60
2022-11-21T05:01:14.004Z,-1.50
2022-11-21T05:03:42.498Z,-1.60
2022-11-21T05:06:11.001Z,-1.40
2022-11-21T05:08:39.982Z,-1.50
2022-11-21T05:11:25.876Z,-1.50
2022-11-21T05:13:56.317Z,-1.50
2022-11-21T05:16:25.849Z,-1.50
2022-11-21T05:18:54.599Z,-1.50
2022-11-21T05:21:23.303Z,-1.50
2022-11-21T05:23:51.854Z,-1.50
2022-11-21T05:26:20.376Z,-1.50
2022-11-21T05:28:48.966Z,-1.50
2022-11-21T05:31:18.857Z,-1.40
2022-11-21T05:33:47.365Z,-1.30
2022-11-21T05:36:15.872Z,-1.30
2022-11-21T05:38:44.754Z,-1.30
2022-11-21T05:41:13.232Z,-1.20
2022-11-21T05:43:46.630Z,-1.20
2022-11-21T05:46:20.821Z,-1.10
2022-11-21T05:48:50.895Z,-1.10
2022-11-21T05:51:20.358Z,-1.00
2022-11-21T05:53:49.461Z,-1.00
2022-11-21T05:56:19.528Z,-1.00
2022-11-21T05:58:48.032Z,-0.90
2022-11-21T06:01:36.652Z,-0.90
2022-11-21T06:04:05.621Z,-0.90
2022-11-21T06:06:34.267Z,-0.90
2022-11-21T06:09:02.749Z,-0.90
2022-11-21T06:11:31.222Z,-0.80
2022-11-21T06:13:59.771Z,-0.80
2022-11-21T06:16:28.964Z,-0.60
2022-11-21T06:18:58.804Z,-0.70
2022-11-21T06:21:30.368Z,-0.60
2022-11-21T06:23:59.925Z,-0.50
2022-11-21T06:26:29.082Z,-0.50
2022-11-21T06:28:58.382Z,-0.40
2022-11-21T06:31:28.393Z,-0.40
2022-11-21T06:33:58.192Z,-0.30
2022-11-21T06:36:28.628Z,-0.20
2022-11-21T06:38:58.132Z,-0.10
2022-11-21T06:41:30.330Z,-0.20
2022-11-21T06:44:01.359Z,0.00
2022-11-21T06:46:30.146Z,0.10
2022-11-21T06:48:58.622Z,0.30
2022-11-21T06:51:28.559Z,0.30
2022-11-21T06:53:59.336Z,0.30
2022-11-21T06:56:29.747Z,0.30
2022-11-21T06:58:58.860Z,0.30
2022-11-21T07:01:27.561Z,0.40
2022-11-21T07:03:56.362Z,0.50
2022-11-21T07:06:25.334Z,0.70
2022-11-21T07:11:44.654Z,0.70
2022-11-21T07:14:12.539Z,0.90
2022-11-21T07:16:41.061Z,0.90
2022-11-21T07:19:09.562Z,1.10
2022-11-21T07:21:38.103Z,1.10
2022-11-21T07:24:08.448Z,1.30
2022-11-21T07:26:36.982Z,1.40
2022-11-21T07:29:06.001Z,1.50
2022-11-21T07:31:34.523Z,1.60
2022-11-21T07:34:03.064Z,1.70
2022-11-21T07:36:32.891Z,1.80
2022-11-21T07:39:01.395Z,1.90
2022-11-21T07:41:31.466Z,2.00
2022-11-21T07:43:59.991Z,2.10
2022-11-21T07:46:28.519Z,2.10
2022-11-21T07:49:01.994Z,2.20
2022-11-21T07:51:31.753Z,2.30
2022-11-21T07:54:00.317Z,2.40
2022-11-21T07:56:30.695Z,2.50
2022-11-21T07:58:59.303Z,2.50
2022-11-21T08:01:27.950Z,2.70
2022-11-21T08:03:56.416Z,2.70
2022-11-21T08:06:24.989Z,2.90
2022-11-21T08:08:55.009Z,2.90
2022-11-21T08:11:23.488Z,3.00
2022-11-21T08:13:53.416Z,3.10
2022-11-21T08:16:22.894Z,3.10
2022-11-21T08:18:52.112Z,3.20
2022-11-21T08:21:20.700Z,3.30
2022-11-21T08:23:49.597Z,3.40
2022-11-21T08:26:18.105Z,3.40
2022-11-21T08:28:46.895Z,3.50
2022-11-21T08:31:16.819Z,3.50
2022-11-21T08:33:45.386Z,3.60
2022-11-21T08:36:13.826Z,3.50
2022-11-21T08:38:42.366Z,3.60
2022-11-21T08:41:31.404Z,3.60
2022-11-21T08:43:59.913Z,3.60
2022-11-21T08:46:30.325Z,3.60
2022-11-21T08:48:58.813Z,3.70
2022-11-21T08:51:27.538Z,3.70
2022-11-21T08:53:55.988Z,3.70
2022-11-21T08:56:24.562Z,3.80
2022-11-21T08:58:53.376Z,3.80
2022-11-21T09:01:21.943Z,3.80
2022-11-21T09:03:51.875Z,3.80
2022-11-21T09:06:20.374Z,3.80
2022-11-21T09:08:48.872Z,3.80
2022-11-21T09:11:17.553Z,3.90
2022-11-21T09:14:06.259Z,3.90
2022-11-21T09:16:51.801Z,3.90
2022-11-21T09:19:21.857Z,3.90
2022-11-21T09:21:51.053Z,4.00
2022-11-21T09:24:20.374Z,4.00
2022-11-21T09:26:49.077Z,4.10
2022-11-21T09:29:17.538Z,4.10
2022-11-21T09:31:46.396Z,4.10
2022-11-21T09:34:14.942Z,4.20
2022-11-21T09:36:44.797Z,4.20
2022-11-21T09:39:13.743Z,4.20
2022-11-21T09:41:53.563Z,4.30
2022-11-21T09:44:47.304Z,4.20
2022-11-21T09:47:24.984Z,4.30
2022-11-21T09:49:58.118Z,4.40
2022-11-21T09:52:36.150Z,4.40
2022-11-21T09:55:08.755Z,4.40
2022-11-21T09:57:37.695Z,4.50
2022-11-21T10:00:15.861Z,4.50
2022-11-21T10:02:47.165Z,4.50
2022-11-21T10:05:17.207Z,4.60
2022-11-21T10:07:47.295Z,4.70
2022-11-21T10:10:42.319Z,4.80
2022-11-21T10:13:22.675Z,4.80
2022-11-21T10:16:03.285Z,4.90
2022-11-21T10:18:54.016Z,5.00
2022-11-21T10:21:43.420Z,5.10
2022-11-21T10:24:23.778Z,5.20
2022-11-21T10:26:55.913Z,5.20
2022-11-21T10:29:31.320Z,5.20
2022-11-21T10:32:04.999Z,5.40
2022-11-21T10:34:37.424Z,5.50
2022-11-21T10:37:16.813Z,5.60
2022-11-21T10:39:50.216Z,5.80
2022-11-21T10:42:33.487Z,5.80
2022-11-21T10:45:19.320Z,5.90
2022-11-21T10:47:49.454Z,6.00
2022-11-21T10:50:41.549Z,6.00
2022-11-21T10:53:35.304Z,6.00
2022-11-21T10:56:09.307Z,6.10
2022-11-21T10:58:43.982Z,6.20
2022-11-21T11:01:24.196Z,6.30
2022-11-21T11:04:43.954Z,6.30
2022-11-21T11:07:22.654Z,6.20
2022-11-21T11:09:52.595Z,6.10
2022-11-21T11:12:51.030Z,6.00
2022-11-21T11:15:22.136Z,6.00
2022-11-21T11:17:54.527Z,6.00
2022-11-21T11:20:36.840Z,6.00
2022-11-21T11:23:33.255Z,6.00
2022-11-21T11:26:02.286Z,6.10
2022-11-21T11:28:38.445Z,5.90
2022-11-21T11:31:07.526Z,5.90
2022-11-21T11:33:37.843Z,6.00
2022-11-21T11:36:15.381Z,6.00
2022-11-21T11:38:53.570Z,6.00
2022-11-21T11:42:16.603Z,6.00
2022-11-21T11:45:17.368Z,6.00
2022-11-21T11:47:54.600Z,6.00
2022-11-21T11:50:28.109Z,6.10
2022-11-21T11:53:05.384Z,6.10
2022-11-21T11:55:39.044Z,6.10
2022-11-21T11:58:15.774Z,6.20
2022-11-21T12:00:51.531Z,6.20
2022-11-21T12:03:23.744Z,6.30
2022-11-21T12:06:09.008Z,6.30
2022-11-21T12:08:47.489Z,6.30
2022-11-21T12:11:57.697Z,6.20
2022-11-21T12:14:57.538Z,6.20
2022-11-21T12:17:34.884Z,6.20
2022-11-21T12:20:06.592Z,6.20
2022-11-21T12:22:36.300Z,6.10
2022-11-21T12:25:08.700Z,6.10
2022-11-21T12:27:37.355Z,6.10
2022-11-21T12:30:39.189Z,6.20
2022-11-21T12:33:19.197Z,6.20
2022-11-21T12:36:17.861Z,6.20
2022-11-21T12:39:09.588Z,6.20
2022-11-21T12:42:00.671Z,6.10
2022-11-21T12:44:42.755Z,6.10
2022-11-21T12:47:25.833Z,6.10
2022-11-21T12:50:26.796Z,6.10
2022-11-21T12:53:19.668Z,6.00
2022-11-21T12:55:49.312Z,6.00
2022-11-21T12:58:27.492Z,5.90
2022-11-21T13:01:14.402Z,5.90
2022-11-21T13:03:53.017Z,5.90
2022-11-21T13:06:26.114Z,5.90
2022-11-21T13:08:56.871Z,5.90
2022-11-21T13:11:55.097Z,5.80
2022-11-21T13:14:31.192Z,5.80
2022-11-21T13:17:17.976Z,5.80
2022-11-21T13:19:53.085Z,5.80
2022-11-21T13:22:50.703Z,5.80
2022-11-21T13:25:47.791Z,6.00
2022-11-21T13:28:40.673Z,5.80
2022-11-21T13:31:29.384Z,5.80
2022-11-21T13:33:58.227Z,5.80
2022-11-21T13:36:43.204Z,5.80
2022-11-21T13:39:39.940Z,5.80
2022-11-21T13:42:30.968Z,5.70
2022-11-21T13:45:00.342Z,5.70
2022-11-21T13:48:06.655Z,5.70
2022-11-21T13:51:09.739Z,5.70
2022-11-21T13:54:17.136Z,5.70
2022-11-21T13:57:03.351Z,5.60
2022-11-21T13:59:47.105Z,5.70
2022-11-21T14:02:45.271Z,5.60
2022-11-21T14:05:30.887Z,5.60
2022-11-21T14:08:19.447Z,5.60
2022-11-21T14:10:48.740Z,5.50
2022-11-21T14:13:24.960Z,5.50
2022-11-21T14:16:17.952Z,5.40
2022-11-21T14:18:47.968Z,5.50
2022-11-21T14:21:22.708Z,5.50
2022-11-21T14:23:51.403Z,5.50
2022-11-21T14:26:22.039Z,5.50
2022-11-21T14:28:52.445Z,5.40
2022-11-21T14:31:21.347Z,5.50
2022-11-21T14:33:49.903Z,5.40
2022-11-21T14:36:21.197Z,5.40
2022-11-21T14:39:13.745Z,5.40
2022-11-21T14:41:42.568Z,5.30
2022-11-21T14:44:21.437Z,5.30
2022-11-21T14:46:50.933Z,5.30
2022-11-21T14:49:29.432Z,5.30
2022-11-21T14:52:07.762Z,5.30
2022-11-21T14:55:00.011Z,5.30
2022-11-21T14:57:37.205Z,5.30
2022-11-21T15:00:10.235Z,5.20
2022-11-21T15:02:39.011Z,5.30
2022-11-21T15:05:13.917Z,5.30
2022-11-21T15:07:44.218Z,5.30
2022-11-21T15:10:30.867Z,5.30
2022-11-21T15:13:03.257Z,5.30
2022-11-21T15:15:35.605Z,5.30
2022-11-21T15:20:56.922Z,5.40
2022-11-21T15:23:30.212Z,5.40
2022-11-21T15:26:01.467Z,5.40
2022-11-21T15:28:31.727Z,5.30
2022-11-21T15:31:18.963Z,5.10
2022-11-21T15:37:04.935Z,4.70
2022-11-21T15:39:36.004Z,4.50
2022-11-21T15:42:30.451Z,4.40
2022-11-21T15:45:00.505Z,4.30
2022-11-21T15:47:30.866Z,4.10
2022-11-21T15:49:59.647Z,4.00
2022-11-21T15:52:28.215Z,3.90
2022-11-21T15:54:56.778Z,3.70
2022-11-21T15:57:25.297Z,3.60
2022-11-21T15:59:54.288Z,3.40
2022-11-21T16:02:22.865Z,3.30
2022-11-21T16:04:53.859Z,3.20
2022-11-21T16:07:22.453Z,3.20
2022-11-21T16:09:52.283Z,3.10
2022-11-21T16:12:20.765Z,3.10
2022-11-21T16:14:50.096Z,3.10
2022-11-21T16:17:19.016Z,3.00
2022-11-21T16:19:47.556Z,3.00
2022-11-21T16:22:17.919Z,3.10
2022-11-21T16:24:46.490Z,3.00
2022-11-21T16:27:15.120Z,3.10
2022-11-21T16:29:43.711Z,3.00
2022-11-21T16:32:12.255Z,3.00
2022-11-21T16:34:40.822Z,2.90
2022-11-21T16:37:09.347Z,2.90
2022-11-21T16:39:39.218Z,2.80
2022-11-21T16:42:11.898Z,2.70
2022-11-21T16:44:40.427Z,2.70
2022-11-21T16:47:08.957Z,2.80
2022-11-21T16:49:42.968Z,2.60
2022-11-21T16:52:12.174Z,2.60
2022-11-21T16:54:42.035Z,2.60
2022-11-21T16:57:10.850Z,2.50
2022-11-21T16:59:39.376Z,2.40
2022-11-21T17:02:08.357Z,2.40
2022-11-21T17:04:38.027Z,2.40
2022-11-21T17:07:06.546Z,2.40
2022-11-21T17:09:35.149Z,2.40
2022-11-21T17:12:06.260Z,2.40
2022-11-21T17:14:34.750Z,2.40
2022-11-21T17:17:03.334Z,2.30
2022-11-21T17:19:31.892Z,2.30
2022-11-21T17:22:00.523Z,2.20
2022-11-21T17:24:29.253Z,2.20
2022-11-21T17:27:00.657Z,2.10
2022-11-21T17:29:30.719Z,2.20
2022-11-21T17:31:59.333Z,2.20
2022-11-21T17:34:32.750Z,2.20
2022-11-21T17:37:01.855Z,2.20
2022-11-21T17:39:32.324Z,2.20
2022-11-21T17:42:02.859Z,2.10
2022-11-21T17:44:33.436Z,2.10
2022-11-21T17:47:02.263Z,2.10
2022-11-21T17:49:37.227Z,2.10
2022-11-21T17:52:07.612Z,2.10
2022-11-21T17:54:36.228Z,2.00
2022-11-21T17:57:05.004Z,2.00
2022-11-21T17:59:34.893Z,1.90
2022-11-21T18:02:03.600Z,2.00
2022-11-21T18:04:34.491Z,2.00
2022-11-21T18:07:03.450Z,1.90
2022-11-21T18:09:32.120Z,1.90
2022-11-21T18:12:00.897Z,1.80
2022-11-21T18:14:29.853Z,1.90
2022-11-21T18:17:00.097Z,1.70
2022-11-21T18:19:28.675Z,1.70
2022-11-21T18:21:57.212Z,1.80
2022-11-21T18:24:25.911Z,1.80
2022-11-21T18:26:54.477Z,1.80
2022-11-21T18:29:39.998Z,1.70
2022-11-21T18:32:09.987Z,1.70
2022-11-21T18:34:38.498Z,1.60
2022-11-21T18:37:06.980Z,1.60
2022-11-21T18:39:35.548Z,1.50
2022-11-21T18:42:04.174Z,1.60
2022-11-21T18:44:32.711Z,1.40
2022-11-21T18:47:01.285Z,1.40
2022-11-21T18:49:31.373Z,1.30
2022-11-21T18:52:00.133Z,1.20
2022-11-21T18:54:28.618Z,1.20
2022-11-21T18:56:57.739Z,1.10
2022-11-21T18:59:26.377Z,1.00
2022-11-21T19:01:55.038Z,1.10
2022-11-21T19:04:25.922Z,1.00
2022-11-21T19:06:55.889Z,0.90
2022-11-21T19:09:29.457Z,0.80
2022-11-21T19:12:01.119Z,0.70
2022-11-21T19:14:31.189Z,0.60
2022-11-21T19:16:59.961Z,0.50
2022-11-21T19:19:34.600Z,0.40
2022-11-21T19:22:06.407Z,0.40
2022-11-21T19:24:35.276Z,0.40
2022-11-21T19:27:03.836Z,0.40
2022-11-21T19:29:33.236Z,0.60
2022-11-21T19:32:01.780Z,0.50
2022-11-21T19:34:30.393Z,0.60
2022-11-21T19:36:58.937Z,0.60
2022-11-21T19:39:30.591Z,0.60
2022-11-21T19:42:00.241Z,0.60
2022-11-21T19:44:28.717Z,0.60
2022-11-21T19:46:57.171Z,0.60
2022-11-21T19:49:25.859Z,0.70
2022-11-21T19:51:54.412Z,0.70
2022-11-21T19:54:22.961Z,0.80
2022-11-21T19:56:52.952Z,0.80
2022-11-21T19:59:21.934Z,0.90
2022-11-21T20:01:52.807Z,0.90
2022-11-21T20:04:21.703Z,0.90
2022-11-21T20:06:50.268Z,1.00
2022-11-21T20:09:20.858Z,1.00
2022-11-21T20:11:51.678Z,1.00
2022-11-21T20:14:22.935Z,1.00
2022-11-21T20:16:54.163Z,1.10
2022-11-21T20:19:24.740Z,1.10
2022-11-21T20:21:53.961Z,1.10
2022-11-21T20:24:22.476Z,1.10
2022-11-21T20:26:51.142Z,1.10
2022-11-21T20:29:21.094Z,1.10
2022-11-21T20:31:49.658Z,1.10
2022-11-21T20:34:18.854Z,1.10
2022-11-21T20:36:47.918Z,1.10
2022-11-21T20:39:18.051Z,1.10
2022-11-21T20:41:47.370Z,1.10
2022-11-21T20:47:09.869Z,1.00
2022-11-21T20:49:38.325Z,0.90
2022-11-21T20:53:36.914Z,0.90
2022-11-21T20:54:55.812Z,0.90
2022-11-21T20:57:25.639Z,0.90
2022-11-21T20:59:54.215Z,0.90
2022-11-21T21:02:24.336Z,0.90
2022-11-21T21:04:53.155Z,0.90
2022-11-21T21:07:21.702Z,0.90
2022-11-21T21:09:50.270Z,0.90
2022-11-21T21:12:20.032Z,0.90
2022-11-21T21:14:48.695Z,0.90
2022-11-21T21:17:17.261Z,0.90
2022-11-21T21:19:48.200Z,0.90
2022-11-21T21:22:16.745Z,0.90
2022-11-21T21:24:45.473Z,0.90
2022-11-21T21:27:14.036Z,0.90
2022-11-21T21:29:42.546Z,1.00
2022-11-21T21:32:11.102Z,0.90
2022-11-21T21:34:39.718Z,0.90
2022-11-21T21:37:09.640Z,0.90
2022-11-21T21:39:38.329Z,0.90
2022-11-21T21:42:07.389Z,0.90
2022-11-21T21:44:36.279Z,0.90
2022-11-21T21:47:05.003Z,0.90
2022-11-21T21:49:33.512Z,0.90
2022-11-21T21:52:02.039Z,0.90
2022-11-21T21:54:32.284Z,0.90
2022-11-21T21:57:01.583Z,1.00
2022-11-21T21:59:30.168Z,1.00
2022-11-21T22:01:58.756Z,1.00
2022-11-21T22:04:27.928Z,1.00
2022-11-21T22:06:57.075Z,0.90
2022-11-21T22:09:26.065Z,0.90
2022-11-21T22:11:55.886Z,0.90
2022-11-21T22:14:25.428Z,0.90
2022-11-21T22:16:54.657Z,0.90
2022-11-21T22:19:23.508Z,0.80
2022-11-21T22:21:52.021Z,0.80
2022-11-21T22:24:25.906Z,0.80
2022-11-21T22:26:56.844Z,0.80
2022-11-21T22:29:25.404Z,0.70
2022-11-21T22:31:54.015Z,0.70
2022-11-21T22:34:22.827Z,0.70
2022-11-21T22:36:51.373Z,0.70
2022-11-21T22:39:20.265Z,0.70
2022-11-21T22:41:48.829Z,0.70
2022-11-21T22:44:19.269Z,0.70
2022-11-21T22:46:47.804Z,0.70
2022-11-21T22:49:16.344Z,0.70
2022-11-21T22:51:45.618Z,0.70
2022-11-21T22:54:14.157Z,0.60
2022-11-21T22:56:42.699Z,0.70
2022-11-21T22:59:14.405Z,0.60
2022-11-21T23:01:44.332Z,0.60
2022-11-21T23:04:17.419Z,0.50
2022-11-21T23:06:46.505Z,0.50
2022-11-21T23:09:15.041Z,0.50
2022-11-21T23:11:43.516Z,0.50
2022-11-21T23:14:12.083Z,0.50
2022-11-21T23:16:40.770Z,0.50
2022-11-21T23:19:10.653Z,0.50
2022-11-21T23:21:39.167Z,0.40
2022-11-21T23:24:08.657Z,0.40
2022-11-21T23:26:37.326Z,0.40
2022-11-21T23:29:08.844Z,0.40
2022-11-21T23:31:37.780Z,0.40
2022-11-21T23:34:06.566Z,0.40
2022-11-21T23:36:36.455Z,0.50
2022-11-21T23:39:05.279Z,0.50
2022-11-21T23:41:33.862Z,0.50
2022-11-21T23:44:02.406Z,0.50
2022-11-21T23:46:31.768Z,0.50
2022-11-21T23:49:00.527Z,0.50
2022-11-21T23:51:29.107Z,0.40
2022-11-21T23:53:59.083Z,0.40
2022-11-21T23:56:27.606Z,0.40
2022-11-21T23:58:56.139Z,0.50
